sensor_id;sensor_type;location;lat;lon;timestamp;P1;durP1;ratioP1;P2;durP2;ratioP2
62110;SDS011;48102;47.526;19.072;2023-04-03T03:40:33;1.42;;;1.25;;
62110;SDS011;48102;47.526;19.072;2023-04-03T03:43:37;1.65;;;1.30;;
62110;SDS011;48102;47.526;19.072;2023-04-03T03:46:40;1.50;;;1.40;;
62110;SDS011;48102;47.526;19.072;2023-04-03T03:49:43;1.45;;;1.33;;
62110;SDS011;48102;47.526;19.072;2023-04-03T03:52:46;1.27;;;1.17;;
62110;SDS011;48102;47.526;19.072;2023-04-03T03:55:49;1.52;;;1.42;;
62110;SDS011;48102;47.526;19.072;2023-04-03T03:58:52;2.08;;;1.58;;
62110;SDS011;48102;47.526;19.072;2023-04-03T04:01:55;1.35;;;1.08;;
62110;SDS011;48102;47.526;19.072;2023-04-03T04:08:01;1.20;;;1.10;;
62110;SDS011;48102;47.526;19.072;2023-04-03T04:11:04;1.52;;;1.10;;
62110;SDS011;48102;47.526;19.072;2023-04-03T04:14:07;1.73;;;1.37;;
62110;SDS011;48102;47.526;19.072;2023-04-03T04:17:10;2.85;;;1.40;;
62110;SDS011;48102;47.526;19.072;2023-04-03T04:20:13;2.37;;;1.58;;
62110;SDS011;48102;47.526;19.072;2023-04-03T04:23:17;4.10;;;2.00;;
62110;SDS011;48102;47.526;19.072;2023-04-03T04:26:21;1.60;;;1.33;;
62110;SDS011;48102;47.526;19.072;2023-04-03T04:32:27;1.75;;;1.45;;
62110;SDS011;48102;47.526;19.072;2023-04-03T04:35:30;2.12;;;1.55;;
62110;SDS011;48102;47.526;19.072;2023-04-03T04:38:33;1.95;;;1.52;;
62110;SDS011;48102;47.526;19.072;2023-04-03T04:41:36;1.55;;;1.45;;
62110;SDS011;48102;47.526;19.072;2023-04-03T04:44:39;1.95;;;1.40;;
62110;SDS011;48102;47.526;19.072;2023-04-03T04:47:42;2.33;;;2.10;;
62110;SDS011;48102;47.526;19.072;2023-04-03T04:50:45;1.87;;;1.52;;
62110;SDS011;48102;47.526;19.072;2023-04-03T04:53:48;2.87;;;1.48;;
62110;SDS011;48102;47.526;19.072;2023-04-03T04:56:51;1.98;;;1.67;;
62110;SDS011;48102;47.526;19.072;2023-04-03T04:59:54;3.58;;;1.70;;
62110;SDS011;48102;47.526;19.072;2023-04-03T05:02:57;2.72;;;1.60;;
62110;SDS011;48102;47.526;19.072;2023-04-03T05:06:00;4.60;;;1.62;;
62110;SDS011;48102;47.526;19.072;2023-04-03T05:09:04;1.40;;;1.23;;
62110;SDS011;48102;47.526;19.072;2023-04-03T05:12:08;3.35;;;1.70;;
62110;SDS011;48102;47.526;19.072;2023-04-03T05:18:14;2.33;;;1.57;;
62110;SDS011;48102;47.526;19.072;2023-04-03T05:21:17;1.30;;;1.15;;
62110;SDS011;48102;47.526;19.072;2023-04-03T05:24:26;2.72;;;1.87;;
62110;SDS011;48102;47.526;19.072;2023-04-03T05:27:29;2.22;;;1.87;;
62110;SDS011;48102;47.526;19.072;2023-04-03T05:33:36;1.80;;;1.48;;
62110;SDS011;48102;47.526;19.072;2023-04-03T05:36:40;2.03;;;1.62;;
62110;SDS011;48102;47.526;19.072;2023-04-03T05:39:43;2.42;;;1.65;;
62110;SDS011;48102;47.526;19.072;2023-04-03T05:42:46;2.92;;;1.92;;
62110;SDS011;48102;47.526;19.072;2023-04-03T05:45:50;1.98;;;1.83;;
62110;SDS011;48102;47.526;19.072;2023-04-03T05:48:53;2.33;;;1.73;;
62110;SDS011;48102;47.526;19.072;2023-04-03T05:51:56;3.05;;;1.60;;
62110;SDS011;48102;47.526;19.072;2023-04-03T05:55:00;1.75;;;1.37;;
62110;SDS011;48102;47.526;19.072;2023-04-03T05:58:04;8.98;;;2.22;;
62110;SDS011;48102;47.526;19.072;2023-04-03T06:01:10;1.73;;;1.52;;
62110;SDS011;48102;47.526;19.072;2023-04-03T06:07:17;2.05;;;1.87;;
62110;SDS011;48102;47.526;19.072;2023-04-03T06:10:25;1.48;;;1.30;;
62110;SDS011;48102;47.526;19.072;2023-04-03T06:13:28;2.42;;;1.92;;
62110;SDS011;48102;47.526;19.072;2023-04-03T06:16:31;3.55;;;2.00;;
62110;SDS011;48102;47.526;19.072;2023-04-03T06:19:35;2.40;;;1.70;;
62110;SDS011;48102;47.526;19.072;2023-04-03T06:22:39;3.70;;;1.73;;
62110;SDS011;48102;47.526;19.072;2023-04-03T06:25:42;4.18;;;1.98;;
62110;SDS011;48102;47.526;19.072;2023-04-03T06:28:45;2.92;;;1.20;;
62110;SDS011;48102;47.526;19.072;2023-04-03T06:31:48;2.53;;;1.90;;
62110;SDS011;48102;47.526;19.072;2023-04-03T06:34:51;3.40;;;1.75;;
62110;SDS011;48102;47.526;19.072;2023-04-03T06:37:55;3.20;;;2.05;;
62110;SDS011;48102;47.526;19.072;2023-04-03T06:40:59;1.87;;;1.30;;
62110;SDS011;48102;47.526;19.072;2023-04-03T06:47:05;2.15;;;1.70;;
62110;SDS011;48102;47.526;19.072;2023-04-03T06:50:09;2.20;;;1.70;;
62110;SDS011;48102;47.526;19.072;2023-04-03T06:53:14;2.25;;;1.25;;
62110;SDS011;48102;47.526;19.072;2023-04-03T06:56:17;1.33;;;1.12;;
62110;SDS011;48102;47.526;19.072;2023-04-03T06:59:20;1.23;;;1.12;;
62110;SDS011;48102;47.526;19.072;2023-04-03T07:02:23;2.95;;;1.20;;
62110;SDS011;48102;47.526;19.072;2023-04-03T07:05:26;1.42;;;1.10;;
62110;SDS011;48102;47.526;19.072;2023-04-03T07:08:29;1.85;;;1.08;;
62110;SDS011;48102;47.526;19.072;2023-04-03T07:11:32;1.60;;;1.00;;
62110;SDS011;48102;47.526;19.072;2023-04-03T07:14:35;1.42;;;1.15;;
62110;SDS011;48102;47.526;19.072;2023-04-03T07:17:38;1.70;;;0.93;;
62110;SDS011;48102;47.526;19.072;2023-04-03T07:20:41;1.48;;;0.82;;
62110;SDS011;48102;47.526;19.072;2023-04-03T07:23:44;1.85;;;1.23;;
62110;SDS011;48102;47.526;19.072;2023-04-03T07:26:49;1.15;;;0.90;;
62110;SDS011;48102;47.526;19.072;2023-04-03T07:29:53;1.48;;;1.02;;
62110;SDS011;48102;47.526;19.072;2023-04-03T07:32:57;5.00;;;1.02;;
62110;SDS011;48102;47.526;19.072;2023-04-03T07:36:01;1.08;;;0.68;;
62110;SDS011;48102;47.526;19.072;2023-04-03T07:39:04;0.73;;;0.60;;
62110;SDS011;48102;47.526;19.072;2023-04-03T07:42:07;2.17;;;0.82;;
62110;SDS011;48102;47.526;19.072;2023-04-03T07:45:10;1.15;;;0.60;;
62110;SDS011;48102;47.526;19.072;2023-04-03T07:48:13;1.58;;;0.90;;
62110;SDS011;48102;47.526;19.072;2023-04-03T07:51:16;1.52;;;0.85;;
62110;SDS011;48102;47.526;19.072;2023-04-03T07:54:19;0.65;;;0.65;;
62110;SDS011;48102;47.526;19.072;2023-04-03T07:57:21;1.60;;;0.60;;
62110;SDS011;48102;47.526;19.072;2023-04-03T08:00:24;0.73;;;0.65;;
62110;SDS011;48102;47.526;19.072;2023-04-03T08:03:27;0.82;;;0.60;;
62110;SDS011;48102;47.526;19.072;2023-04-03T08:06:31;1.30;;;0.85;;
62110;SDS011;48102;47.526;19.072;2023-04-03T08:09:48;1.35;;;0.80;;
62110;SDS011;48102;47.526;19.072;2023-04-03T08:12:51;1.00;;;0.90;;
62110;SDS011;48102;47.526;19.072;2023-04-03T08:15:54;0.77;;;0.68;;
62110;SDS011;48102;47.526;19.072;2023-04-03T08:18:59;1.33;;;1.10;;
62110;SDS011;48102;47.526;19.072;2023-04-03T08:25:05;1.37;;;0.70;;
62110;SDS011;48102;47.526;19.072;2023-04-03T08:28:09;0.93;;;0.70;;
62110;SDS011;48102;47.526;19.072;2023-04-03T08:31:15;2.17;;;1.00;;
62110;SDS011;48102;47.526;19.072;2023-04-03T08:34:21;4.53;;;0.80;;
62110;SDS011;48102;47.526;19.072;2023-04-03T08:37:23;1.17;;;0.70;;
62110;SDS011;48102;47.526;19.072;2023-04-03T08:43:37;1.65;;;0.80;;
62110;SDS011;48102;47.526;19.072;2023-04-03T08:50:16;1.10;;;0.70;;
62110;SDS011;48102;47.526;19.072;2023-04-03T08:53:21;1.30;;;0.80;;
62110;SDS011;48102;47.526;19.072;2023-04-03T08:56:31;0.55;;;0.52;;
62110;SDS011;48102;47.526;19.072;2023-04-03T08:59:36;0.70;;;0.70;;
62110;SDS011;48102;47.526;19.072;2023-04-03T09:02:49;1.62;;;0.85;;
62110;SDS011;48102;47.526;19.072;2023-04-03T09:12:38;0.93;;;0.62;;
62110;SDS011;48102;47.526;19.072;2023-04-03T09:15:44;1.33;;;0.65;;
62110;SDS011;48102;47.526;19.072;2023-04-03T09:21:56;1.98;;;0.52;;
62110;SDS011;48102;47.526;19.072;2023-04-03T09:25:02;1.30;;;0.80;;
62110;SDS011;48102;47.526;19.072;2023-04-03T09:28:16;1.48;;;0.80;;
62110;SDS011;48102;47.526;19.072;2023-04-03T09:31:20;0.80;;;0.60;;
62110;SDS011;48102;47.526;19.072;2023-04-03T09:34:35;0.68;;;0.43;;
62110;SDS011;48102;47.526;19.072;2023-04-03T09:37:40;1.75;;;1.00;;
62110;SDS011;48102;47.526;19.072;2023-04-03T09:40:45;1.65;;;0.68;;
62110;SDS011;48102;47.526;19.072;2023-04-03T09:43:54;0.60;;;0.50;;
62110;SDS011;48102;47.526;19.072;2023-04-03T09:46:58;2.37;;;0.60;;
62110;SDS011;48102;47.526;19.072;2023-04-03T09:53:30;0.50;;;0.50;;
62110;SDS011;48102;47.526;19.072;2023-04-03T09:56:33;0.60;;;0.57;;
62110;SDS011;48102;47.526;19.072;2023-04-03T09:59:39;0.43;;;0.40;;
62110;SDS011;48102;47.526;19.072;2023-04-03T10:03:27;0.60;;;0.40;;
62110;SDS011;48102;47.526;19.072;2023-04-03T10:06:38;1.02;;;0.65;;
62110;SDS011;48102;47.526;19.072;2023-04-03T10:10:00;0.65;;;0.50;;
62110;SDS011;48102;47.526;19.072;2023-04-03T10:13:26;0.93;;;0.67;;
62110;SDS011;48102;47.526;19.072;2023-04-03T10:19:42;1.27;;;0.67;;
62110;SDS011;48102;47.526;19.072;2023-04-03T10:23:00;0.60;;;0.50;;
62110;SDS011;48102;47.526;19.072;2023-04-03T10:43:50;0.80;;;0.50;;
62110;SDS011;48102;47.526;19.072;2023-04-03T10:46:51;1.25;;;0.57;;
62110;SDS011;48102;47.526;19.072;2023-04-03T10:50:01;1.02;;;0.50;;
62110;SDS011;48102;47.526;19.072;2023-04-03T10:53:31;1.00;;;0.52;;
62110;SDS011;48102;47.526;19.072;2023-04-03T10:56:42;1.10;;;0.60;;
62110;SDS011;48102;47.526;19.072;2023-04-03T10:59:57;0.60;;;0.45;;
62110;SDS011;48102;47.526;19.072;2023-04-03T11:03:29;1.02;;;0.50;;
62110;SDS011;48102;47.526;19.072;2023-04-03T11:06:39;0.60;;;0.50;;
62110;SDS011;48102;47.526;19.072;2023-04-03T11:09:52;0.52;;;0.40;;
62110;SDS011;48102;47.526;19.072;2023-04-03T11:13:20;0.30;;;0.30;;
62110;SDS011;48102;47.526;19.072;2023-04-03T11:16:30;0.93;;;0.60;;
62110;SDS011;48102;47.526;19.072;2023-04-03T11:23:04;0.80;;;0.50;;
62110;SDS011;48102;47.526;19.072;2023-04-03T11:26:18;1.75;;;0.52;;
62110;SDS011;48102;47.526;19.072;2023-04-03T11:29:25;0.40;;;0.35;;
62110;SDS011;48102;47.526;19.072;2023-04-03T11:36:07;2.72;;;0.68;;
62110;SDS011;48102;47.526;19.072;2023-04-03T11:39:29;0.85;;;0.52;;
62110;SDS011;48102;47.526;19.072;2023-04-03T11:42:40;0.43;;;0.40;;
62110;SDS011;48102;47.526;19.072;2023-04-03T11:46:01;0.70;;;0.47;;
62110;SDS011;48102;47.526;19.072;2023-04-03T11:49:08;0.50;;;0.40;;
62110;SDS011;48102;47.526;19.072;2023-04-03T11:52:54;0.45;;;0.30;;
62110;SDS011;48102;47.526;19.072;2023-04-03T11:56:00;0.73;;;0.50;;
62110;SDS011;48102;47.526;19.072;2023-04-03T12:02:36;0.60;;;0.40;;
62110;SDS011;48102;47.526;19.072;2023-04-03T12:12:55;1.10;;;0.60;;
62110;SDS011;48102;47.526;19.072;2023-04-03T12:15:59;0.45;;;0.40;;
62110;SDS011;48102;47.526;19.072;2023-04-03T12:19:04;1.10;;;0.55;;
62110;SDS011;48102;47.526;19.072;2023-04-03T12:23:06;0.60;;;0.50;;
62110;SDS011;48102;47.526;19.072;2023-04-03T12:29:27;0.35;;;0.35;;
62110;SDS011;48102;47.526;19.072;2023-04-03T12:32:45;0.40;;;0.37;;
62110;SDS011;48102;47.526;19.072;2023-04-03T12:36:15;1.80;;;0.70;;
62110;SDS011;48102;47.526;19.072;2023-04-03T12:46:50;0.43;;;0.40;;
62110;SDS011;48102;47.526;19.072;2023-04-03T12:49:54;0.50;;;0.45;;
62110;SDS011;48102;47.526;19.072;2023-04-03T12:59:24;0.43;;;0.40;;
62110;SDS011;48102;47.526;19.072;2023-04-03T13:02:29;1.00;;;0.40;;
62110;SDS011;48102;47.526;19.072;2023-04-03T13:05:34;0.65;;;0.40;;
62110;SDS011;48102;47.526;19.072;2023-04-03T13:08:38;1.67;;;0.60;;
62110;SDS011;48102;47.526;19.072;2023-04-03T13:11:54;0.55;;;0.40;;
62110;SDS011;48102;47.526;19.072;2023-04-03T13:15:16;0.47;;;0.35;;
62110;SDS011;48102;47.526;19.072;2023-04-03T13:21:31;0.65;;;0.55;;
62110;SDS011;48102;47.526;19.072;2023-04-03T13:24:37;0.55;;;0.50;;
62110;SDS011;48102;47.526;19.072;2023-04-03T13:27:41;0.62;;;0.45;;
62110;SDS011;48102;47.526;19.072;2023-04-03T13:31:08;0.68;;;0.60;;
62110;SDS011;48102;47.526;19.072;2023-04-03T13:34:22;0.85;;;0.50;;
62110;SDS011;48102;47.526;19.072;2023-04-03T13:37:29;1.10;;;0.62;;
62110;SDS011;48102;47.526;19.072;2023-04-03T13:40:35;0.80;;;0.50;;
62110;SDS011;48102;47.526;19.072;2023-04-03T13:47:23;0.73;;;0.50;;
62110;SDS011;48102;47.526;19.072;2023-04-03T13:50:27;0.88;;;0.50;;
62110;SDS011;48102;47.526;19.072;2023-04-03T13:53:32;0.60;;;0.43;;
62110;SDS011;48102;47.526;19.072;2023-04-03T13:56:37;1.10;;;0.57;;
62110;SDS011;48102;47.526;19.072;2023-04-03T13:59:44;0.47;;;0.40;;
62110;SDS011;48102;47.526;19.072;2023-04-03T14:02:47;0.80;;;0.40;;
62110;SDS011;48102;47.526;19.072;2023-04-03T14:05:51;0.57;;;0.40;;
62110;SDS011;48102;47.526;19.072;2023-04-03T14:08:54;1.05;;;0.70;;
62110;SDS011;48102;47.526;19.072;2023-04-03T14:11:58;1.02;;;0.40;;
62110;SDS011;48102;47.526;19.072;2023-04-03T14:15:15;0.75;;;0.55;;
62110;SDS011;48102;47.526;19.072;2023-04-03T14:18:19;0.70;;;0.55;;
62110;SDS011;48102;47.526;19.072;2023-04-03T14:21:22;1.75;;;0.65;;
62110;SDS011;48102;47.526;19.072;2023-04-03T14:24:26;0.98;;;0.57;;
62110;SDS011;48102;47.526;19.072;2023-04-03T14:27:34;0.98;;;0.70;;
62110;SDS011;48102;47.526;19.072;2023-04-03T14:30:40;0.65;;;0.50;;
62110;SDS011;48102;47.526;19.072;2023-04-03T14:33:45;1.02;;;0.40;;
62110;SDS011;48102;47.526;19.072;2023-04-03T14:36:49;1.30;;;0.47;;
62110;SDS011;48102;47.526;19.072;2023-04-03T14:39:53;0.62;;;0.50;;
62110;SDS011;48102;47.526;19.072;2023-04-03T14:42:56;1.48;;;0.75;;
62110;SDS011;48102;47.526;19.072;2023-04-03T14:46:00;0.68;;;0.50;;
62110;SDS011;48102;47.526;19.072;2023-04-03T14:49:08;0.57;;;0.50;;
62110;SDS011;48102;47.526;19.072;2023-04-03T14:52:24;0.60;;;0.50;;
62110;SDS011;48102;47.526;19.072;2023-04-03T14:55:32;0.73;;;0.40;;
62110;SDS011;48102;47.526;19.072;2023-04-03T14:58:35;0.57;;;0.43;;
62110;SDS011;48102;47.526;19.072;2023-04-03T15:01:39;1.10;;;0.60;;
62110;SDS011;48102;47.526;19.072;2023-04-03T15:04:42;1.30;;;0.70;;
62110;SDS011;48102;47.526;19.072;2023-04-03T15:10:58;0.80;;;0.50;;
62110;SDS011;48102;47.526;19.072;2023-04-03T15:14:01;1.23;;;0.57;;
62110;SDS011;48102;47.526;19.072;2023-04-03T15:17:04;1.02;;;0.80;;
62110;SDS011;48102;47.526;19.072;2023-04-03T15:20:11;0.47;;;0.40;;
62110;SDS011;48102;47.526;19.072;2023-04-03T15:23:17;0.60;;;0.40;;
